createdAt,value
2023-05-15T00:01:55.292Z,5.18
2023-05-15T00:06:59.967Z,5.72
2023-05-15T00:12:07.483Z,6.68
2023-05-15T00:17:12.837Z,6.35
2023-05-15T00:22:17.748Z,4.45
2023-05-15T00:27:25.209Z,6.82
2023-05-15T00:32:30.045Z,8.25
2023-05-15T00:37:34.786Z,4.00
2023-05-15T00:42:42.670Z,6.15
2023-05-15T00:47:47.761Z,4.20
2023-05-15T00:52:52.571Z,3.83
2023-05-15T00:58:05.676Z,3.83
2023-05-15T01:03:10.874Z,4.07
2023-05-15T01:08:19.479Z,5.03
2023-05-15T01:13:27.336Z,10.93
2023-05-15T01:18:32.865Z,4.28
2023-05-15T01:23:47.736Z,6.18
2023-05-15T01:28:57.653Z,11.07
2023-05-15T01:39:07.424Z,6.25
2023-05-15T01:44:17.893Z,5.82
2023-05-15T01:49:23.138Z,6.43
2023-05-15T01:54:28.019Z,6.13
2023-05-15T01:59:35.944Z,3.95
2023-05-15T02:04:41.190Z,5.28
2023-05-15T02:09:46.414Z,6.55
2023-05-15T02:14:54.645Z,4.75
2023-05-15T02:19:59.408Z,4.28
2023-05-15T02:25:04.354Z,4.88
2023-05-15T02:30:23.405Z,4.28
2023-05-15T02:35:30.809Z,3.88
2023-05-15T02:40:37.484Z,4.70
2023-05-15T02:45:45.143Z,3.97
2023-05-15T02:50:49.949Z,4.97
2023-05-15T02:55:54.803Z,6.07
2023-05-15T03:01:02.197Z,5.05
2023-05-15T03:06:07.280Z,5.25
2023-05-15T03:11:12.120Z,4.07
2023-05-15T03:16:19.609Z,5.85
2023-05-15T03:21:24.367Z,6.55
2023-05-15T03:26:29.137Z,4.90
2023-05-15T03:31:36.467Z,6.57
2023-05-15T03:36:41.206Z,5.95
2023-05-15T03:41:45.863Z,6.97
2023-05-15T03:46:53.258Z,5.72
2023-05-15T03:51:59.302Z,5.32
2023-05-15T03:57:04.615Z,6.55
2023-05-15T04:02:11.968Z,9.45
2023-05-15T04:07:16.772Z,8.25
2023-05-15T04:12:22.498Z,10.00
2023-05-15T04:17:30.830Z,7.25
2023-05-15T04:22:35.553Z,6.53
2023-05-15T04:27:40.351Z,7.32
2023-05-15T04:32:47.831Z,8.27
2023-05-15T04:37:52.587Z,8.30
2023-05-15T04:42:57.298Z,6.13
2023-05-15T04:48:04.703Z,9.63
2023-05-15T04:53:09.658Z,6.32
2023-05-15T04:58:14.445Z,8.70
2023-05-15T05:03:21.802Z,8.68
2023-05-15T05:08:26.595Z,9.40
2023-05-15T05:13:31.764Z,9.05
2023-05-15T05:18:39.263Z,16.17
2023-05-15T05:23:44.235Z,12.15
2023-05-15T05:28:48.999Z,9.88
2023-05-15T05:33:56.424Z,7.95
2023-05-15T05:39:01.248Z,10.43
2023-05-15T05:44:08.180Z,9.13
2023-05-15T05:49:15.854Z,6.35
2023-05-15T05:54:21.002Z,6.38
2023-05-15T05:59:25.729Z,7.93
2023-05-15T06:09:49.055Z,5.82
2023-05-15T06:14:53.862Z,10.32
2023-05-15T06:19:58.571Z,8.85
2023-05-15T06:25:06.095Z,8.23
2023-05-15T06:30:21.753Z,10.45
2023-05-15T06:35:27.137Z,9.55
2023-05-15T06:40:34.976Z,8.02
2023-05-15T06:45:39.772Z,7.60
2023-05-15T06:50:44.483Z,8.18
2023-05-15T06:55:51.749Z,8.50
2023-05-15T07:00:56.977Z,8.25
2023-05-15T07:06:02.892Z,9.05
2023-05-15T07:11:10.361Z,8.95
2023-05-15T07:16:15.059Z,8.43
2023-05-15T07:21:19.793Z,8.48
2023-05-15T07:26:32.817Z,7.40
2023-05-15T07:31:40.811Z,10.00
2023-05-15T07:36:45.687Z,8.98
2023-05-15T07:41:53.106Z,7.60
2023-05-15T07:46:58.335Z,9.57
2023-05-15T07:52:03.919Z,16.27
2023-05-15T07:57:11.285Z,12.20
2023-05-15T08:02:16.090Z,10.57
2023-05-15T08:07:21.064Z,14.05
2023-05-15T08:12:29.281Z,16.13
2023-05-15T08:17:34.107Z,13.40
2023-05-15T08:22:39.398Z,11.57
2023-05-15T08:27:46.846Z,15.27
2023-05-15T08:32:51.772Z,10.05
2023-05-15T08:37:56.895Z,8.63
2023-05-15T08:43:07.122Z,6.90
2023-05-15T08:48:13.758Z,8.93
2023-05-15T08:53:18.766Z,7.28
2023-05-15T08:58:28.593Z,8.00
2023-05-15T09:03:33.505Z,8.82
2023-05-15T09:08:38.794Z,13.32
2023-05-15T09:13:46.226Z,11.70
2023-05-15T09:18:52.252Z,14.35
2023-05-15T09:23:58.145Z,9.70
2023-05-15T09:29:07.833Z,8.93
2023-05-15T09:34:15.358Z,9.02
2023-05-15T09:39:25.401Z,9.55
2023-05-15T12:13:48.730Z,6.93
2023-05-15T12:18:53.646Z,7.35
2023-05-15T12:24:07.548Z,6.65
2023-05-15T12:29:16.448Z,9.82
2023-05-15T12:34:21.293Z,6.15
2023-05-15T12:39:25.987Z,6.50
2023-05-15T13:27:46.200Z,7.78
2023-05-15T13:32:52.552Z,5.67
2023-05-15T13:37:59.699Z,11.10
2023-05-15T13:43:07.207Z,6.80
2023-05-15T13:48:12.186Z,9.40
2023-05-15T13:53:17.362Z,6.88
2023-05-15T13:58:26.906Z,6.32
2023-05-15T14:36:12.514Z,6.20
2023-05-15T14:41:20.359Z,10.43
2023-05-15T14:46:28.449Z,6.35
2023-05-15T14:51:33.378Z,5.82
2023-05-15T14:56:40.702Z,10.98
2023-05-15T15:01:46.805Z,7.40
2023-05-15T15:06:51.683Z,7.07
2023-05-15T15:11:58.968Z,23.38
2023-05-15T15:17:03.936Z,13.38
2023-05-15T15:22:08.646Z,10.50
2023-05-15T15:27:15.931Z,7.78
2023-05-15T15:32:20.897Z,17.08
2023-05-15T15:37:29.389Z,9.20
2023-05-15T15:42:39.208Z,14.90
2023-05-15T15:47:44.036Z,15.55
2023-05-15T15:52:48.901Z,11.95
2023-05-15T15:57:56.305Z,10.77
2023-05-15T16:03:03.742Z,11.90
2023-05-15T16:08:08.695Z,11.50
2023-05-15T16:13:16.374Z,10.80
2023-05-15T16:18:21.074Z,18.10
2023-05-15T16:23:25.765Z,14.18
2023-05-15T16:28:33.053Z,12.70
2023-05-15T16:33:37.718Z,12.32
2023-05-15T16:38:42.533Z,10.80
2023-05-15T16:43:50.208Z,11.20
2023-05-15T16:48:54.875Z,13.80
2023-05-15T16:53:59.804Z,10.85
2023-05-15T16:59:07.405Z,13.02
2023-05-15T17:04:12.143Z,12.77
2023-05-15T17:09:16.925Z,14.00
2023-05-15T17:14:24.257Z,12.13
2023-05-15T17:19:29.596Z,12.25
2023-05-15T17:24:49.383Z,12.65
2023-05-15T17:29:58.931Z,12.68
2023-05-15T17:35:03.765Z,12.90
2023-05-15T17:40:09.378Z,13.65
2023-05-15T17:45:17.077Z,10.63
2023-05-15T17:50:21.779Z,15.18
2023-05-15T17:55:26.642Z,15.00
2023-05-15T18:00:34.126Z,13.70
2023-05-15T18:05:38.953Z,14.40
2023-05-15T18:10:43.732Z,13.60
2023-05-15T18:15:51.302Z,10.98
2023-05-15T18:20:57.808Z,11.10
2023-05-15T18:26:02.496Z,12.65
2023-05-15T18:31:10.369Z,12.80
2023-05-15T18:36:15.198Z,11.02
2023-05-15T18:41:20.172Z,12.93
2023-05-15T18:46:28.611Z,11.02
2023-05-15T18:51:33.591Z,16.67
2023-05-15T18:56:38.679Z,11.82
2023-05-15T19:01:49.023Z,14.90
2023-05-15T19:06:53.851Z,9.80
2023-05-15T19:11:58.584Z,13.38
2023-05-15T19:17:06.112Z,11.00
2023-05-15T19:22:10.933Z,11.02
2023-05-15T19:27:15.626Z,12.50
2023-05-15T19:32:23.230Z,11.48
2023-05-15T19:37:28.226Z,12.20
2023-05-15T19:42:33.117Z,13.40
2023-05-15T19:47:40.477Z,11.15
2023-05-15T19:52:45.589Z,10.65
2023-05-15T19:57:50.443Z,15.48
2023-05-15T20:08:47.287Z,13.35
2023-05-15T20:13:52.044Z,14.32
2023-05-15T20:18:57.531Z,15.07
2023-05-15T20:24:05.002Z,14.88
2023-05-15T20:29:09.781Z,13.13
2023-05-15T20:34:15.494Z,16.60
2023-05-15T20:39:22.914Z,12.90
2023-05-15T20:44:27.632Z,11.95
2023-05-15T20:49:32.427Z,13.32
2023-05-15T20:54:39.968Z,11.70
2023-05-15T20:59:44.686Z,12.77
2023-05-15T21:04:49.573Z,14.05
2023-05-15T21:09:57.335Z,12.52
2023-05-15T21:15:02.112Z,15.63
2023-05-15T21:20:07.450Z,16.98
2023-05-15T21:25:16.245Z,11.70
2023-05-15T21:30:21.039Z,12.57
2023-05-15T21:35:25.938Z,15.60
2023-05-15T21:40:33.325Z,13.45
2023-05-15T21:45:38.146Z,14.07
2023-05-15T21:50:42.937Z,14.35
2023-05-15T21:55:52.359Z,16.08
2023-05-15T22:00:57.193Z,13.98
2023-05-15T22:06:02.135Z,13.90
2023-05-15T22:11:10.025Z,13.98
2023-05-15T22:16:15.326Z,17.25
2023-05-15T22:21:20.205Z,15.20
2023-05-15T22:26:27.704Z,19.05
2023-05-15T22:31:32.458Z,15.98
2023-05-15T22:36:37.302Z,22.20
2023-05-15T22:41:44.739Z,15.90
2023-05-15T22:46:49.932Z,14.73
2023-05-15T22:51:54.821Z,15.63
2023-05-15T22:57:02.181Z,17.25
2023-05-15T23:07:28.476Z,17.10
2023-05-15T23:12:35.782Z,15.30
2023-05-15T23:17:40.645Z,16.20
2023-05-15T23:22:45.429Z,18.52
2023-05-15T23:27:53.244Z,17.45
2023-05-15T23:32:58.018Z,18.23
2023-05-15T23:38:02.897Z,17.20
2023-05-15T23:43:10.473Z,21.40
2023-05-15T23:48:15.328Z,18.38
2023-05-15T23:53:20.184Z,20.63
2023-05-15T23:58:27.554Z,19.40
